Julian, North Carolina
Current Conditions -  °F | °C
As of 3:54 PM on Tuesday 21 Oct 2014 (Local Time) from KBUY Reporting Station
Broken Clouds Broken Clouds  
Wind Chill: 72°   Ceiling: 7000
Heat Index: 72°   Visibility: 10mi
Dew Point: 42°   Wind: 13mph
Humidity: 34%   Direction: 300°WNW
Pressure: 29.83"   Gusts: NA
Location:  35.91°N, 79.66°W
Report Text: KBUY 211954Z AUTO 30011KT 10SM BKN070 BKN080 22/06 A2983 RMK AO2 SLP099 T02220056
Loading
Personal Weather Stations






























Interactive Weather Map
Tropical Storm Tracking
New forecast layout! Learn more

10-Day Weather Forecast

Advertisements
Track Severe Weather on mobile